Time;durP1;ratioP1;P1;durP2;ratioP2;P2;SDS_P1;SDS_P2;PMS_P1;PMS_P2;Temp;Humidity;BMP_temperature;BMP_pressure;BME280_temperature;BME280_humidity;BME280_pressure;Samples;Min_cycle;Max_cycle;Signal;HPM_P1;HPM_P2
2024/03/17 00:00:30;;;;;;;2.80;1.70;;;10.00;99.90;;;;;;5022463;28;20453;-81
2024/03/17 00:02:56;;;;;;;1.90;1.50;;;9.40;99.90;;;;;;5040434;28;20387;-80
2024/03/17 00:05:22;;;;;;;2.40;1.50;;;10.00;99.90;;;;;;5038874;28;20823;-80
2024/03/17 00:07:47;;;;;;;1.43;1.33;;;10.00;99.90;;;;;;5026633;28;20429;-81
2024/03/17 00:10:13;;;;;;;1.35;1.25;;;9.40;99.90;;;;;;5032616;28;20426;-81
2024/03/17 00:12:39;;;;;;;2.15;1.40;;;9.80;99.90;;;;;;5021087;28;20825;-81
2024/03/17 00:15:06;;;;;;;1.98;1.48;;;10.00;99.90;;;;;;5021212;28;20466;-81
2024/03/17 00:17:32;;;;;;;1.40;1.30;;;9.90;99.90;;;;;;5042545;28;20406;-81
2024/03/17 00:20:01;;;;;;;1.88;1.10;;;10.10;99.90;;;;;;5023747;28;20399;-83
2024/03/17 00:22:27;;;;;;;1.90;1.10;;;10.00;99.90;;;;;;5039269;28;20465;-80
2024/03/17 00:24:53;;;;;;;1.50;1.40;;;9.90;99.90;;;;;;5039550;28;20413;-81
2024/03/17 00:27:18;;;;;;;1.40;1.30;;;9.90;99.90;;;;;;5022222;28;20443;-81
2024/03/17 00:29:45;;;;;;;3.05;1.58;;;9.70;99.90;;;;;;5041184;28;20385;-79
2024/03/17 00:32:11;;;;;;;2.60;1.55;;;9.20;99.90;;;;;;5031289;28;20398;-79
2024/03/17 00:34:37;;;;;;;3.03;1.50;;;9.80;99.90;;;;;;5048551;28;20414;-79
2024/03/17 00:37:02;;;;;;;2.30;1.50;;;9.90;99.90;;;;;;5031305;28;20397;-80
2024/03/17 00:39:28;;;;;;;2.13;1.70;;;9.80;99.90;;;;;;5027472;28;20391;-80
2024/03/17 00:41:54;;;;;;;2.20;1.20;;;9.90;99.90;;;;;;5039684;28;20475;-81
2024/03/17 00:44:19;;;;;;;1.50;1.40;;;9.90;99.90;;;;;;5021058;28;20964;-81
2024/03/17 00:46:45;;;;;;;1.52;1.30;;;10.00;99.90;;;;;;5038525;28;20391;-81
2024/03/17 00:49:12;;;;;;;3.10;1.30;;;10.00;99.90;;;;;;5039230;28;20394;-81
2024/03/17 00:51:37;;;;;;;3.17;1.50;;;9.60;99.90;;;;;;5041460;28;20504;-81
2024/03/17 00:54:03;;;;;;;1.30;1.20;;;9.40;99.90;;;;;;5022718;28;20435;-80
2024/03/17 00:56:28;;;;;;;1.30;1.10;;;9.70;99.90;;;;;;5037558;28;20387;-80
2024/03/17 00:58:54;;;;;;;2.03;1.40;;;9.70;99.90;;;;;;5038318;28;20391;-81
2024/03/17 01:01:19;;;;;;;1.60;1.40;;;9.80;99.90;;;;;;5021200;28;20395;-81
2024/03/17 01:03:45;;;;;;;1.53;1.20;;;9.80;99.90;;;;;;5020644;28;20391;-81
2024/03/17 01:06:11;;;;;;;1.60;1.50;;;10.00;99.90;;;;;;5037195;28;20395;-81
2024/03/17 01:08:36;;;;;;;4.60;1.60;;;10.30;99.90;;;;;;5037612;28;20384;-80
2024/03/17 01:11:03;;;;;;;2.83;1.50;;;9.80;99.90;;;;;;5021415;28;20394;-80
2024/03/17 01:13:28;;;;;;;1.35;1.25;;;9.70;99.90;;;;;;5044223;28;20399;-81
2024/03/17 01:15:54;;;;;;;2.80;1.70;;;9.60;99.90;;;;;;5043193;28;20502;-81
2024/03/17 01:18:19;;;;;;;1.50;1.40;;;9.50;99.90;;;;;;5025080;28;20387;-81
2024/03/17 01:20:45;;;;;;;1.58;1.48;;;9.60;99.90;;;;;;5027544;28;20445;-80
2024/03/17 01:23:11;;;;;;;1.60;1.50;;;9.70;99.90;;;;;;5023556;28;20395;-81
2024/03/17 01:25:37;;;;;;;1.67;1.33;;;9.60;99.90;;;;;;5037388;28;20462;-81
2024/03/17 01:28:06;;;;;;;4.15;1.58;;;9.50;99.90;;;;;;5038450;28;20383;-81
2024/03/17 01:30:34;;;;;;;1.60;1.50;;;9.70;99.90;;;;;;5022219;28;20391;-81
2024/03/17 01:33:02;;;;;;;1.60;1.50;;;9.60;99.90;;;;;;5036019;28;20451;-80
2024/03/17 01:35:27;;;;;;;2.28;1.30;;;9.30;99.90;;;;;;5017995;28;20395;-80
2024/03/17 01:37:53;;;;;;;1.77;1.60;;;9.00;99.90;;;;;;5049835;28;20404;-81
2024/03/17 01:40:18;;;;;;;2.10;1.60;;;9.50;99.90;;;;;;5043125;28;20414;-81
2024/03/17 01:42:44;;;;;;;2.40;1.30;;;9.70;99.90;;;;;;5036805;28;20383;-81
2024/03/17 01:45:15;;;;;;;2.10;1.50;;;9.50;99.90;;;;;;5036663;28;20383;-81
2024/03/17 01:47:41;;;;;;;2.83;1.30;;;9.50;99.90;;;;;;5037201;28;20383;-81
2024/03/17 01:50:08;;;;;;;1.70;1.60;;;8.90;99.90;;;;;;5018289;28;20606;-81
2024/03/17 01:52:34;;;;;;;2.20;1.40;;;9.40;99.90;;;;;;5019287;28;20452;-81
2024/03/17 01:55:00;;;;;;;1.50;1.40;;;9.40;99.90;;;;;;5035931;28;20426;-81
2024/03/17 01:57:26;;;;;;;1.50;1.40;;;9.30;99.90;;;;;;5036318;28;20752;-80
2024/03/17 01:59:52;;;;;;;1.83;1.50;;;9.40;99.90;;;;;;5040682;28;20379;-79
2024/03/17 02:02:17;;;;;;;2.10;1.50;;;9.50;99.90;;;;;;5040927;28;20402;-80
2024/03/17 02:04:43;;;;;;;1.70;1.60;;;9.30;99.90;;;;;;5019342;28;20910;-81
2024/03/17 02:07:08;;;;;;;2.65;1.60;;;8.80;99.90;;;;;;5026747;28;20395;-80
2024/03/17 02:09:34;;;;;;;1.63;1.40;;;9.30;99.90;;;;;;5026871;28;20717;-78
2024/03/17 02:11:59;;;;;;;3.60;1.80;;;9.30;99.90;;;;;;5042932;28;20402;-81
2024/03/17 02:14:25;;;;;;;2.60;1.40;;;9.20;99.90;;;;;;5045491;28;20423;-81
2024/03/17 02:16:51;;;;;;;3.90;1.77;;;9.20;99.90;;;;;;5021434;28;20394;-81
2024/03/17 02:19:17;;;;;;;2.33;1.40;;;9.20;99.90;;;;;;5020999;28;20399;-80
2024/03/17 02:21:42;;;;;;;1.30;1.20;;;9.20;99.90;;;;;;5067185;22;20437;-82
2024/03/17 02:24:08;;;;;;;1.57;1.40;;;9.20;99.90;;;;;;5044498;28;20396;-82
2024/03/17 02:26:35;;;;;;;2.00;1.30;;;9.00;99.90;;;;;;5056449;28;20381;-82
2024/03/17 02:29:00;;;;;;;1.83;1.30;;;9.10;99.90;;;;;;5056030;28;20393;-82
2024/03/17 02:31:26;;;;;;;1.50;1.40;;;9.00;99.90;;;;;;5060816;28;20388;-82
2024/03/17 02:33:51;;;;;;;2.60;1.77;;;9.00;99.90;;;;;;5064593;28;20465;-82
2024/03/17 02:36:17;;;;;;;2.50;1.40;;;8.90;99.90;;;;;;5061187;28;20403;-82
2024/03/17 02:41:28;;;;;;;1.83;1.40;;;8.70;99.90;;;;;;5056539;28;20551;-82
2024/03/17 02:43:54;;;;;;;1.65;1.45;;;8.70;99.90;;;;;;5055010;28;20404;-82
2024/03/17 02:46:19;;;;;;;2.03;1.50;;;8.90;99.90;;;;;;5046871;28;20396;-81
2024/03/17 02:48:51;;;;;;;1.92;1.40;;;8.90;99.90;;;;;;5075724;28;20388;-82
2024/03/17 02:51:19;;;;;;;1.40;1.30;;;8.80;99.90;;;;;;5057495;28;20486;-81
2024/03/17 02:53:46;;;;;;;1.58;1.48;;;8.60;99.90;;;;;;5075357;28;20921;-81
2024/03/17 02:56:11;;;;;;;1.50;1.40;;;8.70;99.90;;;;;;5067797;28;20382;-81
2024/03/17 02:58:39;;;;;;;2.90;1.67;;;8.70;99.90;;;;;;5063000;28;20890;-81
2024/03/17 03:01:09;;;;;;;3.30;2.17;;;8.50;99.90;;;;;;5056267;28;20432;-81
2024/03/17 03:03:35;;;;;;;2.03;1.50;;;8.40;99.90;;;;;;5056785;28;20828;-82
2024/03/17 03:06:03;;;;;;;2.63;1.70;;;8.40;99.90;;;;;;5057479;28;20385;-81
2024/03/17 03:08:30;;;;;;;2.22;1.67;;;8.40;99.90;;;;;;5039270;28;20527;-81
2024/03/17 03:10:55;;;;;;;1.50;1.40;;;8.70;99.90;;;;;;5056219;28;20408;-82
2024/03/17 03:13:21;;;;;;;4.37;1.73;;;8.60;99.90;;;;;;5055570;28;20409;-81
2024/03/17 03:15:47;;;;;;;2.30;1.50;;;8.60;99.90;;;;;;5055647;28;20462;-81
2024/03/17 03:18:13;;;;;;;2.10;1.60;;;8.70;99.90;;;;;;5057005;28;20375;-80
2024/03/17 03:20:39;;;;;;;2.53;1.70;;;8.70;99.90;;;;;;5075249;28;20403;-82
2024/03/17 03:23:04;;;;;;;3.28;1.80;;;8.50;99.90;;;;;;5074066;28;20410;-81
2024/03/17 03:25:30;;;;;;;3.17;1.50;;;8.60;99.90;;;;;;5060044;28;20397;-81
2024/03/17 03:27:57;;;;;;;1.67;1.57;;;8.60;99.90;;;;;;5036300;28;20401;-82
2024/03/17 03:30:23;;;;;;;6.72;1.70;;;8.60;99.90;;;;;;5054556;28;20926;-82
2024/03/17 03:32:49;;;;;;;3.08;1.70;;;9.70;99.90;;;;;;5054917;28;20409;-82
2024/03/17 03:35:15;;;;;;;1.97;1.77;;;8.40;99.90;;;;;;5036013;28;20423;-82
2024/03/17 03:37:41;;;;;;;2.13;1.70;;;8.50;99.90;;;;;;5054480;28;20389;-81
2024/03/17 03:40:17;;;;;;;3.40;1.80;;;8.50;99.90;;;;;;5054401;28;20408;-81
2024/03/17 03:42:43;;;;;;;2.45;1.52;;;8.30;99.90;;;;;;5061176;28;20381;-81
2024/03/17 03:45:12;;;;;;;2.45;1.95;;;8.10;99.90;;;;;;5060461;28;20396;-81
2024/03/17 03:47:42;;;;;;;1.90;1.80;;;7.70;99.90;;;;;;5029834;28;20409;-81
2024/03/17 03:50:09;;;;;;;3.15;2.00;;;8.00;99.90;;;;;;5081386;28;20399;-82
2024/03/17 03:52:38;;;;;;;4.95;2.20;;;8.20;99.90;;;;;;5077642;28;20380;-81
2024/03/17 03:55:10;;;;;;;2.50;1.90;;;8.10;99.90;;;;;;5079571;28;20380;-81
2024/03/17 03:57:38;;;;;;;2.03;1.92;;;8.00;99.90;;;;;;5086896;28;20384;-81
2024/03/17 04:00:13;;;;;;;2.80;1.70;;;8.00;99.90;;;;;;5071123;28;20386;-82
2024/03/17 04:02:39;;;;;;;3.75;2.05;;;8.00;99.90;;;;;;5049269;28;21004;-81
2024/03/17 04:05:05;;;;;;;3.00;1.85;;;7.90;99.90;;;;;;5079023;28;20389;-82
2024/03/17 04:07:31;;;;;;;2.83;1.92;;;7.90;99.90;;;;;;5078208;28;20376;-82
2024/03/17 04:09:57;;;;;;;3.77;2.10;;;7.70;99.90;;;;;;5077782;28;20388;-82
2024/03/17 04:12:24;;;;;;;2.10;1.60;;;7.80;99.90;;;;;;5059812;28;20409;-82
2024/03/17 04:14:53;;;;;;;1.92;1.60;;;7.70;99.90;;;;;;5051408;28;20412;-82
2024/03/17 04:17:21;;;;;;;3.70;1.52;;;7.70;99.90;;;;;;5074082;28;20480;-81
2024/03/17 04:19:50;;;;;;;1.80;1.70;;;7.70;99.90;;;;;;5057432;28;20401;-82
2024/03/17 04:22:16;;;;;;;1.63;1.52;;;7.70;99.90;;;;;;5057915;28;20405;-83
2024/03/17 04:24:43;;;;;;;3.88;2.20;;;7.70;99.90;;;;;;5057870;28;20769;-82
2024/03/17 04:27:08;;;;;;;1.90;1.60;;;7.60;99.90;;;;;;5042587;28;20770;-82
2024/03/17 04:29:34;;;;;;;4.97;1.90;;;7.20;99.90;;;;;;5042145;28;20396;-82
2024/03/17 04:32:00;;;;;;;1.80;1.70;;;7.70;99.90;;;;;;5041866;28;20400;-82
2024/03/17 04:34:27;;;;;;;2.10;1.90;;;7.50;99.90;;;;;;5072158;28;20441;-81
2024/03/17 04:36:53;;;;;;;3.70;1.65;;;7.50;99.90;;;;;;5056987;28;20457;-82
2024/03/17 04:39:19;;;;;;;2.30;1.60;;;7.40;99.90;;;;;;5057282;28;21024;-82
2024/03/17 04:41:45;;;;;;;2.58;1.40;;;7.30;99.90;;;;;;5038916;28;20389;-81
2024/03/17 04:44:11;;;;;;;3.30;1.50;;;7.40;99.90;;;;;;5059343;28;20389;-81
2024/03/17 04:46:36;;;;;;;2.33;2.13;;;7.40;99.90;;;;;;5058169;28;20398;-82
2024/03/17 04:49:03;;;;;;;3.00;1.52;;;7.20;99.90;;;;;;5078501;28;20388;-82
2024/03/17 04:51:29;;;;;;;3.40;1.80;;;7.30;99.90;;;;;;5074965;28;20772;-83
2024/03/17 04:53:55;;;;;;;3.50;1.60;;;7.30;99.90;;;;;;5031833;28;20411;-81
2024/03/17 04:56:20;;;;;;;6.10;2.40;;;7.40;99.90;;;;;;5062840;28;20380;-82
2024/03/17 04:58:46;;;;;;;2.72;1.40;;;7.40;99.90;;;;;;5057440;28;20453;-81
2024/03/17 05:01:12;;;;;;;1.60;1.50;;;7.40;99.90;;;;;;5070754;28;20404;-78
2024/03/17 05:03:38;;;;;;;2.77;1.50;;;7.30;99.90;;;;;;5051408;28;20471;-81
2024/03/17 05:06:04;;;;;;;1.70;1.60;;;7.20;99.90;;;;;;5044429;28;20425;-81
2024/03/17 05:08:31;;;;;;;1.80;1.70;;;7.10;99.90;;;;;;5056615;28;20500;-81
2024/03/17 05:10:58;;;;;;;3.50;2.10;;;7.30;99.90;;;;;;5055541;28;20389;-81
2024/03/17 05:13:27;;;;;;;3.00;1.70;;;6.90;99.90;;;;;;5067128;28;20866;-81
2024/03/17 05:15:54;;;;;;;2.45;1.70;;;7.10;99.90;;;;;;5056898;28;20452;-81
2024/03/17 05:18:20;;;;;;;1.75;1.55;;;6.80;99.90;;;;;;5076377;28;20384;-82
2024/03/17 05:20:47;;;;;;;1.70;1.60;;;7.00;99.90;;;;;;5076725;28;20466;-81
2024/03/17 05:23:13;;;;;;;3.40;1.90;;;7.00;99.90;;;;;;5066424;28;20400;-81
2024/03/17 05:25:39;;;;;;;3.00;1.50;;;6.90;99.90;;;;;;5059486;28;20409;-82
2024/03/17 05:28:04;;;;;;;2.88;1.60;;;6.90;99.90;;;;;;5055341;28;20420;-82
2024/03/17 05:30:30;;;;;;;3.40;2.40;;;6.80;99.90;;;;;;5037842;28;20406;-82
2024/03/17 05:32:56;;;;;;;1.90;1.70;;;6.90;99.90;;;;;;5054841;28;20472;-81
2024/03/17 05:35:21;;;;;;;4.10;1.90;;;7.00;99.90;;;;;;5055134;28;20382;-81
2024/03/17 05:37:49;;;;;;;2.60;1.37;;;6.90;99.90;;;;;;5057017;28;20386;-81
2024/03/17 05:40:14;;;;;;;1.45;1.30;;;6.90;99.90;;;;;;5055588;28;20888;-81
2024/03/17 05:42:43;;;;;;;1.65;1.50;;;6.90;99.90;;;;;;5054257;28;20394;-81
2024/03/17 05:45:11;;;;;;;2.00;1.63;;;6.90;99.90;;;;;;5054775;28;20805;-81
2024/03/17 05:47:41;;;;;;;3.88;1.60;;;7.00;99.90;;;;;;5044688;28;20420;-81
2024/03/17 05:50:06;;;;;;;2.17;1.80;;;7.00;99.90;;;;;;5057632;28;20392;-81
2024/03/17 05:52:32;;;;;;;3.90;1.85;;;6.90;99.90;;;;;;5074379;28;20808;-81
2024/03/17 05:54:58;;;;;;;2.55;2.00;;;6.90;99.90;;;;;;5056642;28;20434;-81
2024/03/17 05:57:24;;;;;;;2.35;1.60;;;7.00;99.90;;;;;;5072657;28;20395;-81
2024/03/17 05:59:49;;;;;;;5.10;1.95;;;7.10;99.90;;;;;;5074382;28;20395;-83
2024/03/17 06:02:15;;;;;;;2.33;1.60;;;7.00;99.90;;;;;;5078587;28;20450;-79
2024/03/17 06:04:41;;;;;;;3.45;2.30;;;7.00;99.90;;;;;;5081649;28;20395;-80
2024/03/17 06:07:07;;;;;;;3.37;1.70;;;7.10;99.90;;;;;;5081443;28;20779;-81
2024/03/17 06:09:32;;;;;;;2.53;1.50;;;7.00;99.90;;;;;;5061530;28;20381;-81
2024/03/17 06:11:58;;;;;;;2.90;1.50;;;6.50;99.90;;;;;;5054943;28;20868;-82
2024/03/17 06:14:24;;;;;;;2.20;1.70;;;7.10;99.90;;;;;;5045854;28;20409;-81
2024/03/17 06:16:49;;;;;;;3.10;1.40;;;9.10;99.90;;;;;;5054788;28;20423;-81
2024/03/17 06:19:15;;;;;;;3.40;1.52;;;7.10;99.90;;;;;;5055641;28;20385;-82
2024/03/17 06:21:41;;;;;;;1.80;1.30;;;6.90;99.90;;;;;;5055151;28;20397;-82
2024/03/17 06:24:06;;;;;;;1.77;1.40;;;7.10;99.90;;;;;;5055331;28;20393;-81
2024/03/17 06:26:34;;;;;;;3.72;1.40;;;7.10;99.90;;;;;;5064471;28;20385;-81
2024/03/17 06:29:00;;;;;;;1.90;1.50;;;7.20;99.90;;;;;;5054153;28;20408;-82
2024/03/17 06:31:26;;;;;;;1.70;1.40;;;7.40;99.90;;;;;;5043998;28;20405;-82
2024/03/17 06:33:51;;;;;;;1.60;1.50;;;7.30;99.90;;;;;;5065417;28;20438;-81
2024/03/17 06:36:17;;;;;;;3.07;2.20;;;7.10;99.90;;;;;;5057447;28;20389;-81
2024/03/17 06:38:43;;;;;;;2.80;1.88;;;7.30;99.90;;;;;;5060356;28;20392;-81
2024/03/17 06:41:10;;;;;;;5.72;1.85;;;7.40;99.90;;;;;;5061769;28;20464;-82
2024/03/17 06:43:35;;;;;;;3.05;2.60;;;7.60;99.90;;;;;;5060941;28;20390;-81
2024/03/17 06:46:01;;;;;;;5.80;2.20;;;7.40;99.90;;;;;;5056441;28;20389;-82
2024/03/17 06:48:28;;;;;;;3.35;2.03;;;7.50;99.90;;;;;;5057902;28;20432;-82
2024/03/17 06:50:54;;;;;;;2.38;2.15;;;7.70;99.90;;;;;;5042076;28;20877;-82
2024/03/17 06:53:20;;;;;;;4.10;2.30;;;7.70;99.90;;;;;;5056047;28;20409;-82
2024/03/17 06:55:53;;;;;;;2.65;2.30;;;7.70;99.90;;;;;;5055897;28;20386;-82
2024/03/17 06:58:22;;;;;;;4.97;2.30;;;7.70;99.90;;;;;;5055754;28;20377;-81
2024/03/17 07:00:59;;;;;;;3.40;2.30;;;7.70;99.90;;;;;;5058408;28;20388;-81
2024/03/17 07:03:32;;;;;;;5.80;2.70;;;7.80;99.90;;;;;;5037298;28;20394;-82
2024/03/17 07:06:01;;;;;;;5.28;2.67;;;7.80;99.90;;;;;;5039660;28;20393;-82
2024/03/17 07:08:27;;;;;;;3.50;2.63;;;7.80;99.90;;;;;;5075799;28;20391;-82
2024/03/17 07:11:04;;;;;;;4.10;3.00;;;8.00;99.90;;;;;;5075697;28;20384;-81
2024/03/17 07:13:37;;;;;;;2.95;2.60;;;8.30;99.90;;;;;;5075549;28;20427;-81
2024/03/17 07:16:07;;;;;;;4.25;2.97;;;8.20;99.90;;;;;;5068529;28;20427;-82
2024/03/17 07:18:33;;;;;;;3.03;2.60;;;8.20;99.90;;;;;;5059145;28;20936;-81
2024/03/17 07:21:00;;;;;;;3.50;2.70;;;8.20;99.90;;;;;;5040661;28;20436;-81
2024/03/17 07:23:26;;;;;;;3.33;3.00;;;8.20;99.90;;;;;;5077573;28;20390;-82
2024/03/17 07:25:56;;;;;;;3.50;2.72;;;8.60;99.90;;;;;;5043396;28;20393;-82
2024/03/17 07:28:22;;;;;;;2.80;2.60;;;8.20;99.90;;;;;;5058952;28;20396;-81
2024/03/17 07:30:59;;;;;;;4.25;2.72;;;8.30;99.90;;;;;;5059267;28;20381;-82
2024/03/17 07:33:26;;;;;;;3.05;2.70;;;8.00;99.90;;;;;;5072481;28;20468;-82
2024/03/17 07:35:54;;;;;;;2.55;2.28;;;8.70;99.90;;;;;;5059966;28;20480;-81
2024/03/17 07:38:21;;;;;;;2.35;2.15;;;8.60;99.90;;;;;;5078765;28;20387;-82
2024/03/17 07:40:57;;;;;;;3.70;2.00;;;8.80;99.90;;;;;;5054322;28;20397;-82
2024/03/17 07:43:23;;;;;;;4.03;1.98;;;8.30;99.90;;;;;;5058140;28;20397;-82
2024/03/17 07:46:11;;;;;;;2.30;2.10;;;8.50;99.90;;;;;;5039369;28;20386;-82
2024/03/17 07:48:37;;;;;;;2.63;1.90;;;11.50;99.90;;;;;;5057522;28;20389;-82
2024/03/17 07:51:08;;;;;;;2.30;2.10;;;8.80;99.90;;;;;;5058336;28;20459;-82
2024/03/17 07:53:34;;;;;;;2.70;2.10;;;8.90;99.90;;;;;;5058822;28;20397;-81
2024/03/17 07:56:11;;;;;;;2.65;2.13;;;8.90;99.90;;;;;;5039548;28;20432;-81
2024/03/17 07:58:40;;;;;;;2.42;2.10;;;9.40;99.90;;;;;;5057913;28;20389;-82
2024/03/17 08:01:09;;;;;;;2.10;1.70;;;9.60;99.90;;;;;;5050850;28;20377;-82
2024/03/17 08:03:35;;;;;;;5.10;2.60;;;9.20;99.90;;;;;;5057817;28;20950;-82
2024/03/17 08:06:02;;;;;;;2.60;2.00;;;9.80;99.90;;;;;;5049697;28;20401;-82
2024/03/17 08:08:28;;;;;;;3.15;2.10;;;10.00;99.90;;;;;;5040278;28;20401;-82
2024/03/17 08:10:54;;;;;;;3.38;1.80;;;10.10;99.90;;;;;;5058164;28;20912;-83
2024/03/17 08:13:20;;;;;;;3.38;1.90;;;10.00;99.90;;;;;;5056013;28;20468;-82
2024/03/17 08:15:54;;;;;;;3.17;1.90;;;10.40;99.90;;;;;;5057652;28;20669;-82
2024/03/17 08:18:19;;;;;;;2.75;1.77;;;10.50;99.90;;;;;;5055405;28;20966;-83
2024/03/17 08:20:46;;;;;;;4.30;1.80;;;10.70;99.90;;;;;;5058523;28;20386;-82
2024/03/17 08:23:12;;;;;;;2.85;1.92;;;10.60;99.90;;;;;;5058423;28;20457;-80
2024/03/17 08:25:38;;;;;;;3.70;2.20;;;10.80;99.90;;;;;;5039779;28;20397;-82
2024/03/17 08:28:04;;;;;;;2.50;2.20;;;10.70;99.90;;;;;;5056971;28;20388;-81
2024/03/17 08:30:30;;;;;;;4.70;2.30;;;10.80;99.90;;;;;;5057142;28;20527;-81
2024/03/17 08:32:56;;;;;;;3.03;2.37;;;11.10;99.90;;;;;;5057422;28;20734;-82
2024/03/17 08:35:22;;;;;;;2.23;2.00;;;11.00;99.90;;;;;;5065227;28;20388;-82
2024/03/17 08:37:48;;;;;;;2.67;2.20;;;11.00;99.90;;;;;;5042677;28;20908;-82
2024/03/17 08:40:13;;;;;;;2.60;1.53;;;11.30;99.90;;;;;;5057618;28;20381;-82
2024/03/17 08:42:40;;;;;;;3.87;1.60;;;11.50;99.90;;;;;;5058048;28;20439;-80
2024/03/17 08:45:06;;;;;;;1.90;1.67;;;11.00;99.90;;;;;;5061969;28;20434;-81
2024/03/17 08:47:31;;;;;;;2.40;1.60;;;11.40;99.90;;;;;;5065429;28;20383;-80
2024/03/17 08:49:58;;;;;;;2.75;1.80;;;11.50;99.90;;;;;;5066041;28;20388;-81
2024/03/17 08:52:24;;;;;;;5.00;2.50;;;11.60;99.90;;;;;;5068274;28;20446;-80
2024/03/17 08:54:52;;;;;;;2.60;2.40;;;11.50;99.90;;;;;;5040770;28;20481;-83
2024/03/17 08:57:18;;;;;;;4.20;2.67;;;11.60;99.90;;;;;;5045204;28;20765;-81
2024/03/17 08:59:47;;;;;;;4.30;3.00;;;11.70;99.90;;;;;;5064525;28;20386;-81
2024/03/17 09:02:16;;;;;;;3.78;2.90;;;11.80;99.90;;;;;;5071642;28;20937;-81
2024/03/17 09:04:42;;;;;;;3.67;2.60;;;11.50;99.90;;;;;;5062765;28;20937;-81
2024/03/17 09:07:08;;;;;;;4.40;2.70;;;11.60;99.90;;;;;;5063223;28;20432;-80
2024/03/17 09:09:33;;;;;;;5.03;3.30;;;11.30;99.90;;;;;;5062104;28;20489;-82
2024/03/17 09:11:59;;;;;;;4.10;2.90;;;12.00;99.90;;;;;;5062360;28;20396;-81
2024/03/17 09:14:25;;;;;;;3.65;2.50;;;12.60;99.90;;;;;;5080977;28;20414;-81
2024/03/17 09:16:50;;;;;;;3.97;3.03;;;11.80;99.90;;;;;;5083801;28;20408;-82
2024/03/17 09:19:16;;;;;;;4.57;3.13;;;11.60;99.90;;;;;;5065441;28;20397;-82
2024/03/17 09:21:42;;;;;;;5.67;3.60;;;11.60;99.90;;;;;;5064190;28;20530;-80
2024/03/17 09:24:08;;;;;;;4.03;3.63;;;11.80;99.90;;;;;;5048922;28;20401;-80
2024/03/17 09:26:34;;;;;;;7.05;4.15;;;11.80;99.90;;;;;;5048815;28;20394;-81
2024/03/17 09:29:01;;;;;;;5.20;3.90;;;12.00;99.90;;;;;;5076492;28;20406;-82
2024/03/17 09:31:26;;;;;;;8.07;4.10;;;11.60;99.90;;;;;;5082989;28;20481;-82
2024/03/17 09:33:52;;;;;;;4.87;3.50;;;12.00;99.90;;;;;;5057705;28;20412;-81
2024/03/17 09:36:18;;;;;;;5.40;3.90;;;11.80;99.90;;;;;;5065201;28;20381;-82
2024/03/17 09:38:45;;;;;;;5.53;4.00;;;11.60;99.90;;;;;;5062836;28;20388;-81
2024/03/17 09:41:25;;;;;;;3.78;3.15;;;11.20;99.90;;;;;;5068265;28;20458;-81
2024/03/17 09:43:53;;;;;;;5.00;3.70;;;11.40;99.90;;;;;;5078270;28;20387;-81
2024/03/17 09:46:20;;;;;;;6.55;4.13;;;11.70;99.90;;;;;;5075986;28;20388;-80
2024/03/17 09:48:46;;;;;;;4.30;3.90;;;11.70;99.90;;;;;;5070885;28;20393;-82
2024/03/17 09:51:29;;;;;;;6.15;4.90;;;11.60;99.90;;;;;;5060470;28;20427;-82
2024/03/17 09:53:55;;;;;;;4.73;4.00;;;11.30;99.90;;;;;;5053531;28;20486;-80
2024/03/17 09:56:21;;;;;;;7.43;4.50;;;11.80;99.90;;;;;;5061111;28;20856;-82
2024/03/17 09:58:48;;;;;;;6.80;4.00;;;11.90;99.90;;;;;;5058762;28;20534;-82
2024/03/17 10:01:14;;;;;;;6.50;4.27;;;12.00;99.90;;;;;;5060858;28;20396;-81
2024/03/17 10:03:44;;;;;;;5.75;4.40;;;12.00;99.90;;;;;;5069983;28;20392;-81
2024/03/17 10:06:11;;;;;;;5.57;4.47;;;11.90;99.90;;;;;;5063448;28;20833;-81
2024/03/17 10:08:48;;;;;;;7.50;4.80;;;11.30;99.90;;;;;;5060611;28;20377;-80
2024/03/17 10:11:19;;;;;;;6.68;4.38;;;11.90;99.90;;;;;;5060606;28;20389;-80
2024/03/17 10:13:45;;;;;;;5.45;4.00;;;11.80;99.90;;;;;;5059280;28;20401;-81
2024/03/17 10:16:21;;;;;;;4.78;4.28;;;11.50;99.90;;;;;;5059307;28;20442;-81
2024/03/17 10:18:47;;;;;;;7.35;4.13;;;11.50;99.90;;;;;;5059903;28;20405;-81
2024/03/17 10:21:30;;;;;;;6.53;4.60;;;11.60;99.90;;;;;;5057683;28;20393;-80
2024/03/17 10:24:14;;;;;;;5.57;4.30;;;11.70;99.90;;;;;;5062459;28;20412;-82
2024/03/17 10:26:46;;;;;;;6.60;4.60;;;11.70;99.90;;;;;;5059672;28;20384;-82
2024/03/17 10:29:32;;;;;;;5.28;4.53;;;11.40;99.90;;;;;;5060301;28;20405;-81
2024/03/17 10:32:04;;;;;;;7.30;4.80;;;11.90;99.90;;;;;;5048317;28;20389;-81
2024/03/17 10:34:37;;;;;;;5.10;4.18;;;12.00;99.90;;;;;;5061932;28;20404;-82
2024/03/17 10:37:10;;;;;;;5.70;3.90;;;11.90;99.90;;;;;;5069727;28;20419;-80
2024/03/17 10:39:37;;;;;;;5.70;4.47;;;12.00;99.90;;;;;;5068971;28;20373;-81
2024/03/17 10:42:04;;;;;;;6.25;4.05;;;12.10;99.90;;;;;;5067272;28;20932;-82
2024/03/17 10:44:31;;;;;;;4.97;4.30;;;12.00;99.90;;;;;;5063667;28;20896;-81
2024/03/17 10:46:59;;;;;;;6.18;4.50;;;12.00;99.90;;;;;;5059709;28;20397;-82
2024/03/17 10:49:31;;;;;;;6.43;5.00;;;12.00;99.90;;;;;;5061679;28;20384;-81
2024/03/17 10:51:59;;;;;;;6.90;4.30;;;11.70;99.90;;;;;;5041367;28;20401;-81
2024/03/17 10:54:31;;;;;;;4.68;4.28;;;11.90;99.90;;;;;;5063953;28;20412;-81
2024/03/17 10:57:25;;;;;;;7.93;4.65;;;12.00;99.90;;;;;;5064832;28;20389;-82
2024/03/17 10:59:52;;;;;;;5.90;5.10;;;11.80;99.90;;;;;;5065447;28;20389;-82
2024/03/17 11:02:23;;;;;;;5.60;4.50;;;12.00;99.90;;;;;;5065280;28;20386;-80
2024/03/17 11:04:54;;;;;;;4.97;4.10;;;12.10;99.90;;;;;;5064622;28;20393;-82
2024/03/17 11:07:20;;;;;;;8.00;5.10;;;12.00;99.90;;;;;;5064811;28;20388;-80
2024/03/17 11:09:47;;;;;;;5.68;4.20;;;12.30;99.90;;;;;;5064259;28;20389;-82
2024/03/17 11:12:45;;;;;;;6.47;4.60;;;11.50;99.90;;;;;;5065089;28;21180;-81
2024/03/17 11:15:38;;;;;;;7.10;4.80;;;12.40;99.90;;;;;;5064323;28;20381;-81
2024/03/17 11:18:12;;;;;;;6.70;5.28;;;12.80;99.90;;;;;;5065420;28;20385;-80
2024/03/17 11:20:39;;;;;;;5.05;4.40;;;12.30;99.90;;;;;;5044175;28;20406;-81
2024/03/17 11:23:06;;;;;;;6.40;5.10;;;12.40;99.90;;;;;;5034157;28;20405;-81
2024/03/17 11:25:33;;;;;;;7.57;4.72;;;12.50;99.90;;;;;;5054356;28;20408;-81
2024/03/17 11:28:09;;;;;;;6.22;4.75;;;12.60;99.90;;;;;;5063728;28;20381;-80
2024/03/17 11:33:37;;;;;;;4.97;4.47;;;12.60;99.90;;;;;;5064125;28;20920;-80
2024/03/17 11:36:27;;;;;;;5.13;4.50;;;12.70;99.90;;;;;;5064990;28;20456;-81
2024/03/17 11:39:00;;;;;;;5.60;4.80;;;12.50;99.90;;;;;;5064487;28;20413;-81
2024/03/17 11:41:41;;;;;;;8.60;5.20;;;12.70;99.90;;;;;;5026981;28;20395;-82
2024/03/17 11:46:52;;;;;;;7.78;4.70;;;12.60;99.90;;;;;;5063878;28;20388;-82
2024/03/17 11:49:29;;;;;;;7.03;5.32;;;12.50;99.90;;;;;;5063979;28;20384;-81
2024/03/17 11:52:00;;;;;;;5.63;5.00;;;12.60;99.90;;;;;;5055591;28;20397;-81
2024/03/17 11:54:33;;;;;;;9.03;5.23;;;12.20;99.90;;;;;;5062435;28;20411;-82
2024/03/17 11:57:07;;;;;;;6.68;5.32;;;12.80;99.90;;;;;;5077046;28;20449;-80
2024/03/17 11:59:33;;;;;;;5.50;5.00;;;12.90;99.90;;;;;;5070488;28;20382;-80
2024/03/17 12:01:59;;;;;;;8.20;5.05;;;12.80;99.90;;;;;;5068188;28;20385;-80
2024/03/17 12:04:25;;;;;;;5.70;4.30;;;12.40;99.90;;;;;;5069090;28;20386;-81
2024/03/17 12:06:58;;;;;;;7.05;4.43;;;12.40;99.90;;;;;;5071537;28;20402;-81
2024/03/17 12:09:31;;;;;;;6.37;4.80;;;12.90;99.90;;;;;;5081320;28;20429;-81
2024/03/17 12:12:06;;;;;;;6.13;4.40;;;12.90;99.90;;;;;;5083969;28;20395;-79
2024/03/17 12:14:32;;;;;;;5.60;4.70;;;12.80;99.90;;;;;;5083263;28;20407;-82
2024/03/17 12:17:03;;;;;;;5.20;4.70;;;12.70;99.90;;;;;;5084360;28;20380;-83
2024/03/17 12:19:29;;;;;;;6.57;5.30;;;12.90;99.90;;;;;;5065511;28;20472;-80
2024/03/17 12:21:59;;;;;;;5.70;5.13;;;12.80;99.90;;;;;;5067292;28;20976;-82
2024/03/17 12:24:29;;;;;;;7.78;4.85;;;12.80;99.90;;;;;;5075812;28;20393;-83
2024/03/17 12:26:57;;;;;;;6.63;4.78;;;12.80;99.90;;;;;;5044007;28;20476;-82
2024/03/17 12:29:25;;;;;;;5.45;4.90;;;12.80;99.90;;;;;;5064136;28;20395;-82
2024/03/17 12:31:51;;;;;;;5.17;4.40;;;12.80;99.90;;;;;;5064924;28;20883;-82
2024/03/17 12:34:18;;;;;;;6.85;4.68;;;12.80;99.90;;;;;;5044365;28;20448;-80
2024/03/17 12:36:44;;;;;;;6.43;5.03;;;12.90;99.90;;;;;;5061718;28;20889;-80
2024/03/17 12:39:21;;;;;;;6.25;5.00;;;12.70;99.90;;;;;;5045934;28;20390;-81
2024/03/17 12:42:05;;;;;;;5.20;4.70;;;12.80;99.90;;;;;;5044448;28;20420;-80
2024/03/17 12:44:42;;;;;;;8.77;5.60;;;12.70;99.90;;;;;;5063277;28;20404;-81
2024/03/17 12:47:15;;;;;;;7.95;4.90;;;12.90;99.90;;;;;;5063417;28;20408;-80
2024/03/17 12:49:55;;;;;;;5.28;4.10;;;12.60;99.90;;;;;;5047313;28;20398;-81
2024/03/17 12:52:25;;;;;;;7.20;4.53;;;12.00;99.90;;;;;;5056919;28;20424;-81
2024/03/17 13:00:34;;;;;;;6.70;4.70;;;12.80;99.90;;;;;;5065883;28;20410;-81
2024/03/17 13:03:01;;;;;;;6.43;5.40;;;12.80;99.90;;;;;;5068048;28;20432;-81
2024/03/17 13:05:26;;;;;;;7.43;4.40;;;12.70;99.90;;;;;;5061197;28;20390;-81
2024/03/17 13:07:54;;;;;;;5.72;4.50;;;12.60;99.90;;;;;;5059843;28;20381;-82
2024/03/17 13:10:21;;;;;;;5.00;4.50;;;12.30;99.90;;;;;;5062133;28;20388;-80